createdAt,value
2017-11-20T00:02:08.701Z,19.60
2017-11-20T00:04:36.202Z,7.93
2017-11-20T00:07:03.945Z,4.60
2017-11-20T00:09:31.480Z,6.57
2017-11-20T00:11:58.987Z,4.67
2017-11-20T00:14:26.501Z,3.90
2017-11-20T00:16:54.014Z,5.53
2017-11-20T00:19:21.512Z,9.23
2017-11-20T00:21:49.308Z,7.83
2017-11-20T00:24:16.805Z,9.30
2017-11-20T00:26:44.633Z,4.50
2017-11-20T00:29:12.298Z,7.40
2017-11-20T00:31:39.797Z,10.40
2017-11-20T00:34:07.304Z,17.10
2017-11-20T00:36:34.978Z,3.60
2017-11-20T00:39:02.729Z,6.97
2017-11-20T00:41:30.483Z,7.17
2017-11-20T00:43:57.982Z,15.40
2017-11-20T00:46:25.477Z,15.10
2017-11-20T00:48:52.978Z,12.90
2017-11-20T00:51:20.473Z,5.13
2017-11-20T00:53:48.888Z,9.33
2017-11-20T00:56:16.425Z,10.03
2017-11-20T00:58:43.917Z,7.20
2017-11-20T01:01:11.408Z,6.10
2017-11-20T01:03:39.115Z,5.70
2017-11-20T01:06:06.608Z,15.60
2017-11-20T01:08:34.344Z,15.80
2017-11-20T01:11:02.111Z,6.10
2017-11-20T01:13:29.881Z,10.43
2017-11-20T01:15:57.385Z,7.07
2017-11-20T01:18:25.020Z,7.43
2017-11-20T01:20:52.849Z,16.93
2017-11-20T01:23:20.328Z,6.77
2017-11-20T01:25:47.832Z,8.57
2017-11-20T01:28:15.329Z,7.10
2017-11-20T01:30:43.002Z,6.20
2017-11-20T01:33:10.493Z,7.40
2017-11-20T01:35:38.212Z,5.07
2017-11-20T01:38:05.811Z,38.37
2017-11-20T01:40:34.943Z,8.03
2017-11-20T01:43:02.455Z,5.40
2017-11-20T01:45:29.954Z,5.60
2017-11-20T01:47:57.450Z,11.03
2017-11-20T01:50:24.970Z,11.20
2017-11-20T01:52:52.457Z,6.90
2017-11-20T01:55:19.968Z,7.40
2017-11-20T01:57:47.469Z,8.23
2017-11-20T02:00:15.229Z,18.23
2017-11-20T02:03:07.381Z,14.00
2017-11-20T02:05:34.903Z,12.80
2017-11-20T02:08:02.405Z,19.53
2017-11-20T02:10:29.942Z,11.83
2017-11-20T02:12:57.449Z,23.87
2017-11-20T02:15:25.808Z,4.50
2017-11-20T02:17:53.545Z,9.90
2017-11-20T02:20:21.059Z,7.23
2017-11-20T02:22:48.597Z,16.97
2017-11-20T02:25:16.869Z,16.27
2017-11-20T02:27:44.385Z,19.93
2017-11-20T02:30:12.080Z,9.70
2017-11-20T02:32:39.598Z,9.03
2017-11-20T02:35:07.267Z,15.77
2017-11-20T02:37:35.073Z,18.30
2017-11-20T02:40:02.610Z,8.27
2017-11-20T02:42:30.296Z,23.23
2017-11-20T02:44:57.790Z,8.07
2017-11-20T02:47:25.290Z,10.90
2017-11-20T02:49:52.793Z,15.10
2017-11-20T02:52:20.289Z,20.50
2017-11-20T02:54:47.834Z,11.50
2017-11-20T02:57:15.373Z,13.30
2017-11-20T02:59:42.937Z,17.40
2017-11-20T03:02:11.133Z,19.00
2017-11-20T03:04:38.634Z,11.90
2017-11-20T03:07:06.318Z,9.93
2017-11-20T03:09:33.809Z,21.30
2017-11-20T03:12:01.577Z,19.47
2017-11-20T03:14:29.120Z,10.90
2017-11-20T03:16:56.793Z,23.00
2017-11-20T03:19:24.309Z,8.23
2017-11-20T03:21:51.929Z,7.10
2017-11-20T03:24:19.481Z,16.03
2017-11-20T03:26:47.000Z,12.67
2017-11-20T03:29:14.697Z,18.10
2017-11-20T03:31:42.209Z,15.73
2017-11-20T03:34:09.715Z,32.67
2017-11-20T03:36:37.256Z,16.07
2017-11-20T03:39:04.826Z,10.27
2017-11-20T03:41:32.320Z,12.60
2017-11-20T03:44:00.025Z,11.00
2017-11-20T03:46:27.693Z,14.60
2017-11-20T03:48:55.274Z,17.67
2017-11-20T03:51:22.799Z,15.23
2017-11-20T03:53:50.514Z,23.57
2017-11-20T03:56:18.001Z,17.00
2017-11-20T03:58:45.502Z,22.47
2017-11-20T04:01:13.046Z,16.90
2017-11-20T04:03:41.507Z,27.10
2017-11-20T04:06:09.010Z,22.43
2017-11-20T04:08:36.525Z,10.13
2017-11-20T04:11:04.020Z,18.00
2017-11-20T04:13:31.647Z,12.03
2017-11-20T04:16:00.032Z,15.60
2017-11-20T04:18:27.583Z,22.13
2017-11-20T04:20:55.137Z,16.13
2017-11-20T04:23:22.700Z,12.00
2017-11-20T04:25:50.361Z,14.57
2017-11-20T04:28:17.925Z,26.53
2017-11-20T04:30:45.454Z,28.33
2017-11-20T04:33:13.722Z,24.70
2017-11-20T04:35:41.266Z,10.73
2017-11-20T04:38:08.741Z,12.67
2017-11-20T04:40:36.249Z,15.03
2017-11-20T04:43:03.912Z,25.53
2017-11-20T04:45:31.473Z,12.30
2017-11-20T04:47:59.018Z,19.33
2017-11-20T04:50:26.616Z,26.80
2017-11-20T04:52:54.528Z,16.73
2017-11-20T04:55:22.018Z,20.87
2017-11-20T04:57:49.537Z,20.50
2017-11-20T05:00:17.337Z,16.13
2017-11-20T05:02:44.833Z,24.90
2017-11-20T05:05:12.396Z,18.40
2017-11-20T05:07:40.656Z,20.13
2017-11-20T05:10:08.372Z,28.37
2017-11-20T05:12:36.148Z,15.93
2017-11-20T05:15:03.755Z,21.70
2017-11-20T05:17:32.292Z,31.40
2017-11-20T05:19:59.796Z,25.43
2017-11-20T05:22:27.412Z,15.93
2017-11-20T05:24:54.912Z,24.10
2017-11-20T05:27:22.437Z,15.23
2017-11-20T05:29:49.948Z,16.57
2017-11-20T05:32:17.454Z,18.47
2017-11-20T05:34:44.961Z,12.60
2017-11-20T05:37:12.593Z,21.43
2017-11-20T05:39:40.086Z,13.80
2017-11-20T05:42:07.718Z,14.13
2017-11-20T05:44:35.213Z,24.50
2017-11-20T05:47:02.995Z,13.30
2017-11-20T05:49:30.770Z,20.13
2017-11-20T05:51:58.320Z,14.00
2017-11-20T05:54:25.941Z,34.20
2017-11-20T05:56:53.740Z,17.57
2017-11-20T05:59:21.246Z,14.50
2017-11-20T06:01:48.757Z,16.50
2017-11-20T06:04:16.281Z,28.67
2017-11-20T06:06:43.944Z,16.07
2017-11-20T06:09:11.457Z,16.67
2017-11-20T06:11:38.978Z,12.33
2017-11-20T06:14:06.489Z,15.33
2017-11-20T06:16:34.012Z,9.77
2017-11-20T06:19:01.529Z,11.07
2017-11-20T06:21:29.019Z,21.27
2017-11-20T06:23:56.689Z,19.90
2017-11-20T06:26:24.184Z,17.53
2017-11-20T06:28:51.936Z,16.73
2017-11-20T06:31:19.446Z,19.73
2017-11-20T06:33:46.938Z,13.70
2017-11-20T06:36:14.622Z,27.73
2017-11-20T06:38:42.141Z,22.80
2017-11-20T06:41:09.639Z,17.60
2017-11-20T06:43:37.291Z,12.30
2017-11-20T06:46:04.800Z,14.33
2017-11-20T06:48:32.342Z,10.60
2017-11-20T06:50:59.946Z,10.53
2017-11-20T06:53:27.433Z,16.30
2017-11-20T06:55:54.932Z,15.03
2017-11-20T06:58:22.625Z,13.83
2017-11-20T07:00:50.381Z,12.10
2017-11-20T07:03:17.876Z,20.17
2017-11-20T07:05:45.604Z,17.27
2017-11-20T07:08:13.358Z,17.60
2017-11-20T07:10:40.880Z,12.23
2017-11-20T07:13:08.384Z,28.60
2017-11-20T07:15:35.921Z,17.87
2017-11-20T07:18:03.485Z,14.43
2017-11-20T07:20:37.673Z,6.03
2017-11-20T07:23:05.213Z,11.43
2017-11-20T07:25:58.347Z,17.53
2017-11-20T07:28:34.485Z,20.33
2017-11-20T07:31:13.898Z,8.20
2017-11-20T07:33:53.282Z,29.37
2017-11-20T07:36:47.537Z,20.00
2017-11-20T07:39:15.037Z,16.87
2017-11-20T07:41:58.261Z,27.07
2017-11-20T07:44:26.524Z,10.47
2017-11-20T07:46:54.114Z,17.90
2017-11-20T07:49:22.378Z,10.77
2017-11-20T07:51:49.891Z,10.90
2017-11-20T07:54:17.569Z,14.33
2017-11-20T07:56:45.337Z,16.30
2017-11-20T07:59:12.827Z,11.03
2017-11-20T08:01:40.337Z,14.67
2017-11-20T08:04:08.216Z,17.37
2017-11-20T08:06:35.741Z,17.17
2017-11-20T08:09:03.241Z,16.50
2017-11-20T08:11:30.763Z,8.53
2017-11-20T08:13:58.262Z,17.90
2017-11-20T08:16:25.765Z,15.43
2017-11-20T08:18:53.271Z,14.50
2017-11-20T08:21:20.776Z,8.30
2017-11-20T08:23:48.274Z,12.73
2017-11-20T08:26:15.778Z,6.23
2017-11-20T08:28:43.469Z,9.87
2017-11-20T08:31:10.970Z,15.60
2017-11-20T08:33:38.465Z,15.50
2017-11-20T08:36:05.962Z,15.53
2017-11-20T08:38:33.622Z,10.80
2017-11-20T08:41:01.390Z,19.47
2017-11-20T08:43:28.988Z,7.97
2017-11-20T08:45:57.513Z,15.17
2017-11-20T08:48:25.272Z,12.73
2017-11-20T08:50:52.792Z,9.53
2017-11-20T08:53:20.461Z,20.47
2017-11-20T08:55:47.968Z,11.80
2017-11-20T08:58:15.472Z,15.10
2017-11-20T09:00:43.140Z,12.20
2017-11-20T09:03:10.651Z,15.20
2017-11-20T09:05:38.404Z,12.33
2017-11-20T09:08:05.917Z,27.73
2017-11-20T09:10:33.440Z,11.53
2017-11-20T09:13:01.086Z,12.23
2017-11-20T09:15:28.942Z,7.47
2017-11-20T09:17:56.595Z,11.07
2017-11-20T09:20:24.406Z,13.40
2017-11-20T09:22:52.153Z,27.90
2017-11-20T09:25:19.786Z,12.73
2017-11-20T09:27:47.290Z,14.43
2017-11-20T09:30:14.801Z,18.97
2017-11-20T09:32:42.594Z,15.43
2017-11-20T09:35:10.197Z,15.63
2017-11-20T09:37:38.462Z,19.77
2017-11-20T09:40:05.989Z,12.30
2017-11-20T09:42:33.503Z,12.80
2017-11-20T09:45:01.036Z,10.53
2017-11-20T09:47:28.844Z,22.10
2017-11-20T09:49:56.380Z,10.80
2017-11-20T09:52:23.915Z,12.77
2017-11-20T09:54:52.180Z,17.33
2017-11-20T09:57:19.927Z,8.17
2017-11-20T09:59:47.439Z,7.60
2017-11-20T10:02:15.117Z,12.97
2017-11-20T10:04:42.626Z,8.57
2017-11-20T10:07:10.124Z,7.83
2017-11-20T10:09:37.622Z,9.57
2017-11-20T10:12:05.262Z,13.00
2017-11-20T10:14:32.748Z,10.57
2017-11-20T10:17:00.520Z,6.50
2017-11-20T10:19:28.033Z,7.37
2017-11-20T10:21:55.562Z,9.90
2017-11-20T10:24:23.069Z,11.47
2017-11-20T10:26:50.614Z,27.33
2017-11-20T10:29:18.115Z,7.03
2017-11-20T10:31:45.612Z,14.13
2017-11-20T10:34:13.122Z,13.83
2017-11-20T10:36:41.789Z,10.50
2017-11-20T10:39:09.425Z,8.87
2017-11-20T10:41:36.948Z,12.07
2017-11-20T10:44:04.438Z,18.07
2017-11-20T10:46:31.940Z,10.30
2017-11-20T10:49:00.212Z,22.70
2017-11-20T10:51:27.705Z,18.23
2017-11-20T10:53:55.399Z,14.77
2017-11-20T10:56:23.087Z,16.50
2017-11-20T10:58:51.358Z,9.00
2017-11-20T11:01:18.893Z,14.30
2017-11-20T11:03:46.438Z,16.70
2017-11-20T11:06:14.197Z,6.80
2017-11-20T11:08:41.697Z,13.43
2017-11-20T11:11:09.207Z,21.77
2017-11-20T11:13:36.718Z,12.90
2017-11-20T11:16:04.977Z,8.83
2017-11-20T11:18:32.496Z,12.27
2017-11-20T11:21:00.016Z,18.03
2017-11-20T11:23:28.284Z,13.40
2017-11-20T11:25:56.013Z,14.00
2017-11-20T11:28:23.559Z,14.87
2017-11-20T11:30:51.064Z,12.23
2017-11-20T11:33:19.596Z,14.37
2017-11-20T11:35:47.106Z,11.43
2017-11-20T11:38:14.617Z,10.97
2017-11-20T11:40:42.161Z,16.87
2017-11-20T11:43:09.739Z,8.07
2017-11-20T11:45:37.242Z,15.40
2017-11-20T11:48:04.745Z,14.27
2017-11-20T11:50:32.249Z,6.53
2017-11-20T11:53:00.513Z,10.03
2017-11-20T11:55:28.022Z,10.50
2017-11-20T11:57:55.517Z,14.97
2017-11-20T12:00:23.196Z,13.63
2017-11-20T12:02:50.929Z,16.13
2017-11-20T12:05:18.439Z,11.07
2017-11-20T12:07:46.057Z,15.70
2017-11-20T12:10:13.594Z,17.60
2017-11-20T12:12:41.100Z,14.47
2017-11-20T12:15:08.650Z,11.17
2017-11-20T12:17:36.310Z,6.80
2017-11-20T12:20:03.815Z,15.17
2017-11-20T12:22:31.317Z,6.63
2017-11-20T12:24:58.960Z,12.20
2017-11-20T12:27:26.457Z,12.23
2017-11-20T12:29:53.972Z,9.30
2017-11-20T12:32:21.581Z,9.73
2017-11-20T12:34:49.076Z,8.93
2017-11-20T12:37:16.881Z,8.77
2017-11-20T12:39:44.400Z,11.80
2017-11-20T12:42:11.907Z,10.17
2017-11-20T12:44:40.181Z,11.33
2017-11-20T12:47:07.912Z,10.77
2017-11-20T12:49:35.432Z,5.77
2017-11-20T12:52:02.935Z,3.60
2017-11-20T12:54:30.426Z,5.73
2017-11-20T12:56:58.703Z,4.37
2017-11-20T12:59:26.388Z,3.53
2017-11-20T13:01:54.259Z,8.07
2017-11-20T13:04:21.752Z,7.83
2017-11-20T13:06:49.299Z,9.23
2017-11-20T13:09:16.881Z,7.37
2017-11-20T13:11:44.390Z,6.10
2017-11-20T13:14:11.931Z,2.00
2017-11-20T13:16:39.557Z,3.37
2017-11-20T13:19:07.087Z,4.67
2017-11-20T13:21:34.633Z,2.70
2017-11-20T13:24:02.222Z,5.23
2017-11-20T13:26:29.987Z,5.10
2017-11-20T13:28:57.493Z,7.40
2017-11-20T13:31:25.036Z,2.47
2017-11-20T13:33:53.325Z,5.73
2017-11-20T13:36:20.812Z,4.43
2017-11-20T13:38:48.314Z,4.30
2017-11-20T13:41:16.588Z,2.40
2017-11-20T13:43:44.079Z,3.50
2017-11-20T13:46:11.584Z,3.43
2017-11-20T13:48:39.230Z,2.57
2017-11-20T13:51:06.730Z,3.53
2017-11-20T13:53:34.243Z,2.13
2017-11-20T13:56:01.811Z,4.63
2017-11-20T13:58:29.315Z,8.00
2017-11-20T14:00:56.804Z,8.00
2017-11-20T14:03:24.761Z,5.57
2017-11-20T14:05:52.262Z,9.40
2017-11-20T14:08:19.778Z,2.80
2017-11-20T14:10:47.277Z,6.50
2017-11-20T14:13:15.026Z,3.63
2017-11-20T14:15:42.560Z,3.00
2017-11-20T14:18:10.241Z,7.23
2017-11-20T14:20:37.751Z,6.13
2017-11-20T14:23:05.267Z,6.90
2017-11-20T14:25:32.763Z,9.10
2017-11-20T14:28:01.020Z,6.40
2017-11-20T14:30:29.081Z,2.33
2017-11-20T14:32:56.604Z,4.97
2017-11-20T14:35:24.126Z,4.63
2017-11-20T14:37:52.722Z,6.27
2017-11-20T14:40:20.212Z,7.50
2017-11-20T14:42:47.709Z,4.80
2017-11-20T14:45:16.006Z,7.60
2017-11-20T14:47:43.541Z,4.40
2017-11-20T14:50:11.067Z,8.60
2017-11-20T14:52:38.573Z,5.23
2017-11-20T14:55:06.073Z,6.73
2017-11-20T14:57:33.574Z,5.87
2017-11-20T15:00:01.086Z,12.93
2017-11-20T15:02:28.660Z,7.40
2017-11-20T15:04:56.181Z,10.00
2017-11-20T15:07:23.709Z,10.83
2017-11-20T15:09:51.238Z,15.33
2017-11-20T15:12:18.762Z,8.53
2017-11-20T15:14:46.279Z,10.50
2017-11-20T15:17:13.797Z,6.70
2017-11-20T15:19:41.289Z,8.20
2017-11-20T15:22:08.838Z,11.97
2017-11-20T15:24:36.371Z,13.50
2017-11-20T15:27:03.876Z,14.40
2017-11-20T15:29:31.422Z,13.90
2017-11-20T15:31:58.939Z,12.17
2017-11-20T15:34:26.611Z,10.50
2017-11-20T15:36:54.372Z,14.27
2017-11-20T15:39:22.017Z,10.07
2017-11-20T15:41:49.569Z,10.00
2017-11-20T15:44:17.128Z,11.00
2017-11-20T15:46:44.660Z,11.30
2017-11-20T15:49:12.929Z,11.50
2017-11-20T15:51:40.649Z,15.53
2017-11-20T15:54:08.417Z,16.13
2017-11-20T15:56:36.182Z,15.37
2017-11-20T15:59:03.726Z,12.07
2017-11-20T16:01:31.414Z,14.00
2017-11-20T16:03:58.931Z,16.00
2017-11-20T16:06:26.636Z,17.93
2017-11-20T16:08:54.372Z,14.30
2017-11-20T16:11:21.868Z,21.10
2017-11-20T16:13:49.380Z,19.90
2017-11-20T16:16:16.930Z,21.30
2017-11-20T16:18:44.509Z,16.17
2017-11-20T16:21:12.036Z,16.83
2017-11-20T16:23:39.545Z,18.33
2017-11-20T16:26:07.077Z,16.10
2017-11-20T16:28:34.670Z,19.43
2017-11-20T16:31:02.436Z,17.97
2017-11-20T16:33:30.197Z,18.67
2017-11-20T16:35:57.707Z,30.83
2017-11-20T16:38:25.261Z,19.03
2017-11-20T16:40:52.771Z,17.10
2017-11-20T16:43:20.309Z,30.17
2017-11-20T16:45:47.821Z,17.50
2017-11-20T16:48:15.328Z,20.87
2017-11-20T16:50:42.977Z,16.47
2017-11-20T16:53:10.772Z,21.53
2017-11-20T16:55:38.261Z,22.80
2017-11-20T16:58:12.729Z,23.00
2017-11-20T17:00:46.945Z,21.73
2017-11-20T17:03:29.377Z,19.23
2017-11-20T17:05:56.910Z,16.17
2017-11-20T17:08:24.405Z,22.30
2017-11-20T17:10:52.135Z,15.90
2017-11-20T17:13:19.629Z,15.47
2017-11-20T17:15:47.345Z,15.50
2017-11-20T17:18:15.126Z,19.03
2017-11-20T17:20:42.635Z,14.80
2017-11-20T17:23:10.260Z,17.80
2017-11-20T17:25:37.768Z,15.03
2017-11-20T17:28:05.266Z,17.07
2017-11-20T17:30:33.011Z,16.73
2017-11-20T17:33:00.508Z,13.00
2017-11-20T17:35:28.235Z,15.87
2017-11-20T17:37:55.761Z,15.50
2017-11-20T17:40:23.472Z,15.80
2017-11-20T17:42:50.994Z,16.67
2017-11-20T17:45:18.665Z,18.23
2017-11-20T17:47:46.183Z,17.37
2017-11-20T17:50:13.694Z,15.80
2017-11-20T17:52:41.313Z,14.90
2017-11-20T17:55:08.823Z,15.60
2017-11-20T17:57:36.450Z,14.77
2017-11-20T18:00:03.950Z,14.07
2017-11-20T18:02:32.387Z,17.20
2017-11-20T18:05:00.116Z,18.80
2017-11-20T18:07:27.680Z,30.50
2017-11-20T18:09:55.386Z,22.70
2017-11-20T18:12:22.896Z,15.10
2017-11-20T18:14:50.596Z,16.47
2017-11-20T18:17:18.114Z,16.63
2017-11-20T18:19:45.625Z,16.00
2017-11-20T18:22:13.140Z,15.00
2017-11-20T18:24:40.656Z,15.13
2017-11-20T18:27:08.250Z,15.37
2017-11-20T18:29:35.919Z,14.67
2017-11-20T18:32:03.515Z,14.17
2017-11-20T18:34:31.023Z,16.23
2017-11-20T18:36:59.829Z,16.87
2017-11-20T18:39:27.349Z,19.40
2017-11-20T18:41:55.034Z,15.87
2017-11-20T18:44:22.545Z,17.50
2017-11-20T18:46:50.060Z,19.10
2017-11-20T18:49:17.552Z,25.80
2017-11-20T18:51:45.181Z,23.13
2017-11-20T18:54:14.124Z,25.03
2017-11-20T18:56:41.657Z,22.53
2017-11-20T18:59:09.166Z,29.13
2017-11-20T19:01:48.440Z,23.57
2017-11-20T19:04:39.970Z,24.93
2017-11-20T19:07:19.401Z,28.27
2017-11-20T19:09:46.927Z,27.50
2017-11-20T19:12:14.469Z,25.77
2017-11-20T19:14:42.740Z,24.63
2017-11-20T19:17:10.466Z,42.10
2017-11-20T19:19:37.978Z,24.97
2017-11-20T19:22:05.495Z,38.23
2017-11-20T19:24:33.034Z,30.80
2017-11-20T19:27:00.633Z,26.90
2017-11-20T19:29:28.527Z,34.47
2017-11-20T19:31:56.230Z,37.70
2017-11-20T19:34:24.106Z,26.33
2017-11-20T19:36:51.723Z,26.53
2017-11-20T19:39:19.728Z,29.93
2017-11-20T19:41:47.309Z,49.17
2017-11-20T19:44:14.966Z,25.33
2017-11-20T19:46:43.187Z,24.97
2017-11-20T19:49:10.993Z,25.17
2017-11-20T19:51:39.064Z,25.57
2017-11-20T19:54:07.127Z,28.50
2017-11-20T19:56:35.219Z,32.23
2017-11-20T19:59:03.369Z,28.37
2017-11-20T20:01:30.896Z,27.43
2017-11-20T20:03:58.552Z,25.00
2017-11-20T20:06:26.475Z,26.30
2017-11-20T20:08:54.076Z,23.50
2017-11-20T20:11:21.659Z,25.60
2017-11-20T20:13:50.578Z,27.83
2017-11-20T20:16:20.985Z,25.90
2017-11-20T20:18:49.341Z,25.80
2017-11-20T20:21:17.718Z,24.90
2017-11-20T20:23:45.257Z,28.10
2017-11-20T20:26:13.549Z,27.40
2017-11-20T20:28:41.171Z,28.53
2017-11-20T20:31:09.054Z,24.33
2017-11-20T20:33:37.317Z,26.83
2017-11-20T20:36:04.880Z,22.87
2017-11-20T20:38:33.398Z,31.27
2017-11-20T20:41:01.681Z,26.87
2017-11-20T20:43:29.188Z,30.80
2017-11-20T20:45:56.722Z,31.50
2017-11-20T20:48:24.281Z,45.97
2017-11-20T20:50:51.783Z,32.73
2017-11-20T20:53:20.070Z,36.00
2017-11-20T20:55:47.837Z,32.77
2017-11-20T20:58:16.155Z,28.83
2017-11-20T21:00:43.649Z,29.33
2017-11-20T21:03:11.198Z,36.33
2017-11-20T21:05:39.620Z,30.70
2017-11-20T21:08:07.120Z,35.40
2017-11-20T21:10:40.365Z,31.17
2017-11-20T21:13:07.883Z,27.10
2017-11-20T21:15:35.388Z,32.20
2017-11-20T21:18:02.934Z,34.57
2017-11-20T21:20:30.633Z,35.17
2017-11-20T21:22:58.153Z,33.17
2017-11-20T21:25:25.851Z,32.20
2017-11-20T21:27:53.399Z,32.93
2017-11-20T21:30:20.928Z,39.13
2017-11-20T21:32:48.516Z,34.73
2017-11-20T21:35:16.012Z,37.43
2017-11-20T21:37:43.534Z,36.70
2017-11-20T21:40:11.214Z,38.80
2017-11-20T21:42:38.725Z,36.60
2017-11-20T21:45:06.766Z,43.97
2017-11-20T21:47:34.283Z,37.83
2017-11-20T21:50:01.937Z,35.50
2017-11-20T21:52:29.440Z,39.53
2017-11-20T21:54:57.251Z,34.60
2017-11-20T21:57:24.929Z,42.13
2017-11-20T21:59:52.466Z,35.97
2017-11-20T22:02:20.720Z,40.87
2017-11-20T22:04:48.272Z,44.83
2017-11-20T22:07:16.039Z,40.03
2017-11-20T22:09:43.784Z,42.10
2017-11-20T22:12:11.320Z,41.97
2017-11-20T22:14:38.887Z,40.67
2017-11-20T22:17:06.418Z,45.53
2017-11-20T22:19:33.920Z,38.33
2017-11-20T22:22:01.448Z,44.03
2017-11-20T22:24:29.119Z,40.60
2017-11-20T22:26:56.905Z,43.27
2017-11-20T22:29:24.406Z,37.10
2017-11-20T22:31:51.924Z,41.70
2017-11-20T22:34:20.256Z,43.17
2017-11-20T22:36:47.757Z,41.93
2017-11-20T22:39:16.682Z,43.30
2017-11-20T22:41:44.240Z,41.70
2017-11-20T22:44:11.752Z,38.03
2017-11-20T22:46:39.277Z,43.90
2017-11-20T22:49:07.702Z,39.90
2017-11-20T22:51:35.241Z,41.40
2017-11-20T22:54:03.652Z,43.37
2017-11-20T22:56:31.364Z,40.93
2017-11-20T22:58:58.871Z,43.10
2017-11-20T23:01:26.476Z,46.60
2017-11-20T23:03:53.989Z,41.00
2017-11-20T23:06:21.685Z,39.37
2017-11-20T23:08:49.218Z,41.63
2017-11-20T23:11:16.718Z,42.00
2017-11-20T23:13:44.224Z,36.50
2017-11-20T23:16:11.756Z,38.77
2017-11-20T23:18:39.326Z,39.77
2017-11-20T23:21:07.449Z,40.90
2017-11-20T23:23:35.007Z,40.93
2017-11-20T23:26:02.501Z,41.63
2017-11-20T23:28:30.556Z,39.43
2017-11-20T23:30:58.109Z,38.93
2017-11-20T23:33:25.637Z,38.57
2017-11-20T23:35:56.503Z,41.33
2017-11-20T23:38:25.844Z,40.30
2017-11-20T23:40:54.553Z,36.13
2017-11-20T23:43:22.672Z,40.87
2017-11-20T23:45:51.264Z,40.40
2017-11-20T23:48:19.225Z,40.43
2017-11-20T23:50:47.558Z,40.00
2017-11-20T23:53:27.316Z,42.33
2017-11-20T23:55:56.032Z,37.30
2017-11-20T23:58:24.190Z,36.17
